sensor_id;sensor_type;location;lat;lon;timestamp;pressure;altitude;pressure_sealevel;temperature;humidity
51123;BME280;37162;41.724;13.346;2023-04-27T00:01:44;96697.50;;;17.63;66.29
51123;BME280;37162;41.724;13.346;2023-04-27T00:04:10;96700.19;;;17.63;66.62
51123;BME280;37162;41.724;13.346;2023-04-27T00:06:38;96700.19;;;17.63;66.85
51123;BME280;37162;41.724;13.346;2023-04-27T00:09:03;96695.63;;;17.63;67.07
51123;BME280;37162;41.724;13.346;2023-04-27T00:11:29;96690.25;;;17.63;67.22
51123;BME280;37162;41.724;13.346;2023-04-27T00:13:55;96690.50;;;17.62;67.43
51123;BME280;37162;41.724;13.346;2023-04-27T00:16:20;96689.44;;;17.63;67.51
51123;BME280;37162;41.724;13.346;2023-04-27T00:18:46;96685.13;;;17.62;67.75
51123;BME280;37162;41.724;13.346;2023-04-27T00:21:11;96684.31;;;17.61;67.67
51123;BME280;37162;41.724;13.346;2023-04-27T00:23:37;96675.91;;;17.58;67.53
51123;BME280;37162;41.724;13.346;2023-04-27T00:26:02;96679.19;;;17.60;67.49
51123;BME280;37162;41.724;13.346;2023-04-27T00:28:27;96680.00;;;17.60;67.38
51123;BME280;37162;41.724;13.346;2023-04-27T00:30:53;96671.50;;;17.52;67.23
51123;BME280;37162;41.724;13.346;2023-04-27T00:33:19;96674.84;;;17.59;67.63
51123;BME280;37162;41.724;13.346;2023-04-27T00:35:45;96687.81;;;17.62;67.66
51123;BME280;37162;41.724;13.346;2023-04-27T00:38:10;96685.13;;;17.62;67.60
51123;BME280;37162;41.724;13.346;2023-04-27T00:40:37;96679.75;;;17.62;67.87
51123;BME280;37162;41.724;13.346;2023-04-27T00:43:02;96682.44;;;17.62;67.73
51123;BME280;37162;41.724;13.346;2023-04-27T00:45:27;96683.25;;;17.62;67.78
51123;BME280;37162;41.724;13.346;2023-04-27T00:47:53;96684.31;;;17.61;67.61
51123;BME280;37162;41.724;13.346;2023-04-27T00:50:26;96677.22;;;17.55;67.74
51123;BME280;37162;41.724;13.346;2023-04-27T00:52:53;96685.13;;;17.62;67.55
51123;BME280;37162;41.724;13.346;2023-04-27T00:55:19;96672.06;;;17.54;67.28
51123;BME280;37162;41.724;13.346;2023-04-27T00:57:45;96687.00;;;17.61;67.14
51123;BME280;37162;41.724;13.346;2023-04-27T01:00:11;96688.88;;;17.61;67.09
51123;BME280;37162;41.724;13.346;2023-04-27T01:02:37;96691.56;;;17.61;66.84
51123;BME280;37162;41.724;13.346;2023-04-27T01:05:04;96692.38;;;17.61;66.73
51123;BME280;37162;41.724;13.346;2023-04-27T01:07:29;96693.19;;;17.62;66.81
51123;BME280;37162;41.724;13.346;2023-04-27T01:09:55;96690.75;;;17.60;66.76
51123;BME280;37162;41.724;13.346;2023-04-27T01:12:21;96675.34;;;17.56;66.67
51123;BME280;37162;41.724;13.346;2023-04-27T01:14:46;96688.88;;;17.61;66.81
51123;BME280;37162;41.724;13.346;2023-04-27T01:17:11;96688.88;;;17.61;66.81
51123;BME280;37162;41.724;13.346;2023-04-27T01:19:38;96690.50;;;17.62;66.70
51123;BME280;37162;41.724;13.346;2023-04-27T01:22:04;96694.47;;;17.59;67.05
51123;BME280;37162;41.724;13.346;2023-04-27T01:24:31;96693.44;;;17.60;66.80
51123;BME280;37162;41.724;13.346;2023-04-27T01:26:56;96686.66;;;17.58;66.82
51123;BME280;37162;41.724;13.346;2023-04-27T01:29:22;96692.63;;;17.60;66.94
51123;BME280;37162;41.724;13.346;2023-04-27T01:31:48;96694.25;;;17.61;66.97
51123;BME280;37162;41.724;13.346;2023-04-27T01:34:13;96695.06;;;17.61;67.22
51123;BME280;37162;41.724;13.346;2023-04-27T01:36:39;96703.13;;;17.61;67.26
51123;BME280;37162;41.724;13.346;2023-04-27T01:39:04;96686.31;;;17.54;67.39
51123;BME280;37162;41.724;13.346;2023-04-27T01:41:33;96703.13;;;17.61;67.39
51123;BME280;37162;41.724;13.346;2023-04-27T01:43:59;96696.84;;;17.56;67.41
51123;BME280;37162;41.724;13.346;2023-04-27T01:46:24;96701.50;;;17.60;67.44
51123;BME280;37162;41.724;13.346;2023-04-27T01:48:50;96696.13;;;17.60;67.30
51123;BME280;37162;41.724;13.346;2023-04-27T01:51:16;96704.19;;;17.60;67.41
51123;BME280;37162;41.724;13.346;2023-04-27T01:53:41;96699.84;;;17.59;67.29
51123;BME280;37162;41.724;13.346;2023-04-27T01:56:07;96701.72;;;17.59;66.90
51123;BME280;37162;41.724;13.346;2023-04-27T01:58:34;96702.78;;;17.58;66.92
51123;BME280;37162;41.724;13.346;2023-04-27T02:00:59;96705.47;;;17.58;66.66
51123;BME280;37162;41.724;13.346;2023-04-27T02:03:25;96701.97;;;17.57;66.76
51123;BME280;37162;41.724;13.346;2023-04-27T02:05:50;96701.97;;;17.57;66.57
51123;BME280;37162;41.724;13.346;2023-04-27T02:08:16;96705.47;;;17.58;66.67
51123;BME280;37162;41.724;13.346;2023-04-27T02:10:41;96704.66;;;17.57;66.96
51123;BME280;37162;41.724;13.346;2023-04-27T02:13:07;96704.09;;;17.55;66.62
51123;BME280;37162;41.724;13.346;2023-04-27T02:15:34;96712.97;;;17.56;66.96
51123;BME280;37162;41.724;13.346;2023-04-27T02:17:59;96706.78;;;17.55;66.82
51123;BME280;37162;41.724;13.346;2023-04-27T02:20:25;96708.63;;;17.55;66.66
51123;BME280;37162;41.724;13.346;2023-04-27T02:22:51;96706.06;;;17.48;66.27
51123;BME280;37162;41.724;13.346;2023-04-27T02:25:17;96712.59;;;17.52;66.42
51123;BME280;37162;41.724;13.346;2023-04-27T02:27:43;96719.59;;;17.53;66.36
51123;BME280;37162;41.724;13.346;2023-04-27T02:30:10;96719.59;;;17.53;66.58
51123;BME280;37162;41.724;13.346;2023-04-27T02:32:36;96725.78;;;17.54;66.69
51123;BME280;37162;41.724;13.346;2023-04-27T02:35:02;96720.41;;;17.54;66.73
51123;BME280;37162;41.724;13.346;2023-04-27T02:37:28;96719.84;;;17.52;67.11
51123;BME280;37162;41.724;13.346;2023-04-27T02:39:54;96716.09;;;17.53;67.05
51123;BME280;37162;41.724;13.346;2023-04-27T02:42:19;96718.78;;;17.53;66.93
51123;BME280;37162;41.724;13.346;2023-04-27T02:44:45;96721.47;;;17.53;66.73
51123;BME280;37162;41.724;13.346;2023-04-27T02:47:11;96720.66;;;17.52;66.56
51123;BME280;37162;41.724;13.346;2023-04-27T02:49:36;96722.28;;;17.53;66.58
51123;BME280;37162;41.724;13.346;2023-04-27T02:52:02;96712.59;;;17.52;66.76
51123;BME280;37162;41.724;13.346;2023-04-27T02:54:28;96713.41;;;17.53;66.63
51123;BME280;37162;41.724;13.346;2023-04-27T02:56:53;96721.47;;;17.53;66.84
51123;BME280;37162;41.724;13.346;2023-04-27T02:59:19;96706.53;;;17.45;66.78
51123;BME280;37162;41.724;13.346;2023-04-27T03:01:44;96709.56;;;17.49;66.84
51123;BME280;37162;41.724;13.346;2023-04-27T03:04:10;96709.91;;;17.52;67.07
51123;BME280;37162;41.724;13.346;2023-04-27T03:06:38;96719.59;;;17.53;66.96
51123;BME280;37162;41.724;13.346;2023-04-27T03:09:04;96708.03;;;17.53;66.97
51123;BME280;37162;41.724;13.346;2023-04-27T03:11:29;96705.38;;;17.53;66.95
51123;BME280;37162;41.724;13.346;2023-04-27T03:13:55;96710.72;;;17.53;67.18
51123;BME280;37162;41.724;13.346;2023-04-27T03:16:20;96703.75;;;17.52;67.01
51123;BME280;37162;41.724;13.346;2023-04-27T03:18:46;96707.22;;;17.52;67.22
51123;BME280;37162;41.724;13.346;2023-04-27T03:21:12;96703.75;;;17.52;67.09
51123;BME280;37162;41.724;13.346;2023-04-27T03:23:38;96701.88;;;17.52;66.96
51123;BME280;37162;41.724;13.346;2023-04-27T03:26:08;96701.06;;;17.52;67.17
51123;BME280;37162;41.724;13.346;2023-04-27T03:28:34;96690.22;;;17.47;67.13
51123;BME280;37162;41.724;13.346;2023-04-27T03:31:00;96694.88;;;17.51;67.15
51123;BME280;37162;41.724;13.346;2023-04-27T03:33:25;96698.38;;;17.52;67.34
51123;BME280;37162;41.724;13.346;2023-04-27T03:35:56;96692.19;;;17.51;67.38
51123;BME280;37162;41.724;13.346;2023-04-27T03:38:22;96698.38;;;17.52;67.47
51123;BME280;37162;41.724;13.346;2023-04-27T03:40:48;96698.38;;;17.52;67.28
51123;BME280;37162;41.724;13.346;2023-04-27T03:43:13;96692.19;;;17.51;67.38
51123;BME280;37162;41.724;13.346;2023-04-27T03:45:38;96702.09;;;17.51;67.23
51123;BME280;37162;41.724;13.346;2023-04-27T03:48:04;96699.44;;;17.51;67.02
51123;BME280;37162;41.724;13.346;2023-04-27T03:50:30;96688.59;;;17.46;67.12
51123;BME280;37162;41.724;13.346;2023-04-27T03:52:55;96688.09;;;17.49;66.71
51123;BME280;37162;41.724;13.346;2023-04-27T03:55:21;96702.09;;;17.51;66.68
51123;BME280;37162;41.724;13.346;2023-04-27T03:57:46;96691.28;;;17.46;66.68
51123;BME280;37162;41.724;13.346;2023-04-27T04:00:12;96695.09;;;17.50;66.54
51123;BME280;37162;41.724;13.346;2023-04-27T04:02:38;96702.09;;;17.51;66.69
51123;BME280;37162;41.724;13.346;2023-04-27T04:05:04;96696.75;;;17.51;66.68
51123;BME280;37162;41.724;13.346;2023-04-27T04:07:30;96697.56;;;17.51;66.70
51123;BME280;37162;41.724;13.346;2023-04-27T04:09:55;96696.75;;;17.51;66.96
51123;BME280;37162;41.724;13.346;2023-04-27T04:12:21;96712.03;;;17.50;66.60
51123;BME280;37162;41.724;13.346;2023-04-27T04:14:46;96707.94;;;17.48;66.62
51123;BME280;37162;41.724;13.346;2023-04-27T04:17:13;96712.84;;;17.51;66.65
51123;BME280;37162;41.724;13.346;2023-04-27T04:19:38;96712.03;;;17.50;66.73
51123;BME280;37162;41.724;13.346;2023-04-27T04:22:04;96717.97;;;17.52;66.93
51123;BME280;37162;41.724;13.346;2023-04-27T04:24:29;96716.34;;;17.51;67.28
51123;BME280;37162;41.724;13.346;2023-04-27T04:26:55;96717.16;;;17.52;67.23
51123;BME280;37162;41.724;13.346;2023-04-27T04:29:21;96719.25;;;17.50;67.33
51123;BME280;37162;41.724;13.346;2023-04-27T04:31:46;96719.03;;;17.51;67.37
51123;BME280;37162;41.724;13.346;2023-04-27T04:34:12;96721.72;;;17.51;67.31
51123;BME280;37162;41.724;13.346;2023-04-27T04:36:38;96731.66;;;17.51;67.22
51123;BME280;37162;41.724;13.346;2023-04-27T04:39:05;96734.34;;;17.51;67.23
51123;BME280;37162;41.724;13.346;2023-04-27T04:41:31;96727.47;;;17.43;67.08
51123;BME280;37162;41.724;13.346;2023-04-27T04:43:57;96739.94;;;17.49;66.72
51123;BME280;37162;41.724;13.346;2023-04-27T04:46:23;96739.38;;;17.47;66.80
51123;BME280;37162;41.724;13.346;2023-04-27T04:48:49;96746.13;;;17.50;66.46
51123;BME280;37162;41.724;13.346;2023-04-27T04:51:15;96733.06;;;17.42;66.31
51123;BME280;37162;41.724;13.346;2023-04-27T04:53:41;96747.19;;;17.49;66.56
51123;BME280;37162;41.724;13.346;2023-04-27T04:56:10;96757.09;;;17.48;66.13
51123;BME280;37162;41.724;13.346;2023-04-27T04:58:36;96752.78;;;17.47;66.01
51123;BME280;37162;41.724;13.346;2023-04-27T05:01:02;96757.09;;;17.48;65.93
51123;BME280;37162;41.724;13.346;2023-04-27T05:03:27;96761.41;;;17.49;65.84
51123;BME280;37162;41.724;13.346;2023-04-27T05:05:52;96758.72;;;17.49;65.90
51123;BME280;37162;41.724;13.346;2023-04-27T05:08:18;96765.75;;;17.50;66.45
51123;BME280;37162;41.724;13.346;2023-04-27T05:10:50;96769.25;;;17.51;66.89
51123;BME280;37162;41.724;13.346;2023-04-27T05:13:16;96767.59;;;17.50;66.63
51123;BME280;37162;41.724;13.346;2023-04-27T05:15:42;96766.78;;;17.49;66.80
51123;BME280;37162;41.724;13.346;2023-04-27T05:18:07;96765.97;;;17.49;66.53
51123;BME280;37162;41.724;13.346;2023-04-27T05:20:36;96770.53;;;17.48;66.51
51123;BME280;37162;41.724;13.346;2023-04-27T05:23:02;96765.88;;;17.44;66.59
51123;BME280;37162;41.724;13.346;2023-04-27T05:25:31;96779.19;;;17.50;66.53
51123;BME280;37162;41.724;13.346;2023-04-27T05:27:57;96782.69;;;17.51;66.91
51123;BME280;37162;41.724;13.346;2023-04-27T05:30:23;96788.63;;;17.53;66.74
51123;BME280;37162;41.724;13.346;2023-04-27T05:32:48;96794.81;;;17.53;66.96
51123;BME280;37162;41.724;13.346;2023-04-27T05:35:14;96796.69;;;17.53;67.05
51123;BME280;37162;41.724;13.346;2023-04-27T05:37:39;96796.69;;;17.53;66.94
51123;BME280;37162;41.724;13.346;2023-04-27T05:40:05;96798.31;;;17.54;66.93
51123;BME280;37162;41.724;13.346;2023-04-27T05:42:33;96801.81;;;17.54;66.79
51123;BME280;37162;41.724;13.346;2023-04-27T05:44:58;96800.78;;;17.55;66.63
51123;BME280;37162;41.724;13.346;2023-04-27T05:47:24;96809.66;;;17.56;66.93
51123;BME280;37162;41.724;13.346;2023-04-27T05:49:53;96808.25;;;17.53;66.75
51123;BME280;37162;41.724;13.346;2023-04-27T05:52:19;96809.66;;;17.56;66.69
51123;BME280;37162;41.724;13.346;2023-04-27T05:54:46;96809.66;;;17.56;66.58
51123;BME280;37162;41.724;13.346;2023-04-27T05:57:12;96811.28;;;17.57;66.84
51123;BME280;37162;41.724;13.346;2023-04-27T05:59:37;96815.84;;;17.56;67.04
51123;BME280;37162;41.724;13.346;2023-04-27T06:02:02;96820.97;;;17.58;66.93
51123;BME280;37162;41.724;13.346;2023-04-27T06:04:28;96819.34;;;17.57;66.81
51123;BME280;37162;41.724;13.346;2023-04-27T06:06:54;96820.16;;;17.57;66.76
51123;BME280;37162;41.724;13.346;2023-04-27T06:09:20;96822.84;;;17.57;66.43
51123;BME280;37162;41.724;13.346;2023-04-27T06:11:46;96824.72;;;17.57;66.38
51123;BME280;37162;41.724;13.346;2023-04-27T06:14:11;96820.16;;;17.57;66.12
51123;BME280;37162;41.724;13.346;2023-04-27T06:16:37;96824.47;;;17.58;66.16
51123;BME280;37162;41.724;13.346;2023-04-27T06:19:04;96821.56;;;17.60;66.15
51123;BME280;37162;41.724;13.346;2023-04-27T06:21:34;96831.25;;;17.61;66.53
51123;BME280;37162;41.724;13.346;2023-04-27T06:24:00;96832.06;;;17.61;66.69
51123;BME280;37162;41.724;13.346;2023-04-27T06:26:25;96826.69;;;17.61;66.92
51123;BME280;37162;41.724;13.346;2023-04-27T06:28:51;96808.00;;;17.55;66.65
51123;BME280;37162;41.724;13.346;2023-04-27T06:31:17;96825.66;;;17.62;66.55
51123;BME280;37162;41.724;13.346;2023-04-27T06:33:42;96823.78;;;17.63;66.60
51123;BME280;37162;41.724;13.346;2023-04-27T06:36:08;96829.16;;;17.63;66.55
51123;BME280;37162;41.724;13.346;2023-04-27T06:38:33;96831.63;;;17.65;66.67
51123;BME280;37162;41.724;13.346;2023-04-27T06:40:59;96834.31;;;17.65;66.14
51123;BME280;37162;41.724;13.346;2023-04-27T06:43:24;96834.50;;;17.63;65.95
51123;BME280;37162;41.724;13.346;2023-04-27T06:45:50;96832.44;;;17.65;65.44
51123;BME280;37162;41.724;13.346;2023-04-27T06:48:16;96839.69;;;17.65;65.42
51123;BME280;37162;41.724;13.346;2023-04-27T06:50:42;96833.47;;;17.64;64.88
51123;BME280;37162;41.724;13.346;2023-04-27T06:53:07;96841.53;;;17.64;64.60
51123;BME280;37162;41.724;13.346;2023-04-27T06:55:33;96837.81;;;17.65;64.09
51123;BME280;37162;41.724;13.346;2023-04-27T06:57:59;96835.94;;;17.66;64.37
51123;BME280;37162;41.724;13.346;2023-04-27T07:00:25;96836.16;;;17.64;64.03
51123;BME280;37162;41.724;13.346;2023-04-27T07:02:51;96836.75;;;17.66;64.03
51123;BME280;37162;41.724;13.346;2023-04-27T07:05:16;96834.06;;;17.66;63.94
51123;BME280;37162;41.724;13.346;2023-04-27T07:07:42;96838.38;;;17.67;63.90
51123;BME280;37162;41.724;13.346;2023-04-27T07:10:08;96841.88;;;17.68;63.66
51123;BME280;37162;41.724;13.346;2023-04-27T07:12:33;96840.00;;;17.68;63.40
51123;BME280;37162;41.724;13.346;2023-04-27T07:14:59;96837.56;;;17.67;63.14
51123;BME280;37162;41.724;13.346;2023-04-27T07:17:24;96846.19;;;17.69;62.91
51123;BME280;37162;41.724;13.346;2023-04-27T07:19:50;96845.97;;;17.70;63.37
51123;BME280;37162;41.724;13.346;2023-04-27T07:22:15;96846.78;;;17.71;63.28
51123;BME280;37162;41.724;13.346;2023-04-27T07:24:42;96846.53;;;17.72;63.61
51123;BME280;37162;41.724;13.346;2023-04-27T07:27:07;96835.78;;;17.72;63.65
51123;BME280;37162;41.724;13.346;2023-04-27T07:29:33;96847.34;;;17.73;63.75
51123;BME280;37162;41.724;13.346;2023-04-27T07:31:58;96840.97;;;17.74;63.79
51123;BME280;37162;41.724;13.346;2023-04-27T07:34:24;96844.66;;;17.73;63.70
51123;BME280;37162;41.724;13.346;2023-04-27T07:36:50;96839.28;;;17.73;63.85
51123;BME280;37162;41.724;13.346;2023-04-27T07:39:18;96848.00;;;17.75;64.16
51123;BME280;37162;41.724;13.346;2023-04-27T07:41:44;96845.50;;;17.73;63.95
51123;BME280;37162;41.724;13.346;2023-04-27T07:44:10;96846.94;;;17.76;64.49
51123;BME280;37162;41.724;13.346;2023-04-27T07:46:36;96839.94;;;17.75;64.43
51123;BME280;37162;41.724;13.346;2023-04-27T07:49:02;96844.25;;;17.76;64.49
51123;BME280;37162;41.724;13.346;2023-04-27T07:51:28;96841.78;;;17.74;64.52
51123;BME280;37162;41.724;13.346;2023-04-27T07:53:53;96831.72;;;17.70;64.63
51123;BME280;37162;41.724;13.346;2023-04-27T07:56:19;96842.38;;;17.76;64.57
51123;BME280;37162;41.724;13.346;2023-04-27T07:58:45;96850.19;;;17.78;64.53
51123;BME280;37162;41.724;13.346;2023-04-27T08:01:10;96844.59;;;17.79;64.44
51123;BME280;37162;41.724;13.346;2023-04-27T08:03:36;96849.97;;;17.79;64.69
51123;BME280;37162;41.724;13.346;2023-04-27T08:06:01;96847.03;;;17.81;64.53
51123;BME280;37162;41.724;13.346;2023-04-27T08:08:28;96845.97;;;17.82;64.29
51123;BME280;37162;41.724;13.346;2023-04-27T08:10:54;96850.88;;;17.85;64.33
51123;BME280;37162;41.724;13.346;2023-04-27T08:13:19;96840.03;;;17.80;64.32
51123;BME280;37162;41.724;13.346;2023-04-27T08:15:45;96852.06;;;17.89;64.32
51123;BME280;37162;41.724;13.346;2023-04-27T08:18:10;96851.00;;;17.90;64.45
51123;BME280;37162;41.724;13.346;2023-04-27T08:20:36;96843.50;;;17.92;64.69
51123;BME280;37162;41.724;13.346;2023-04-27T08:23:01;96839.53;;;17.95;64.43
51123;BME280;37162;41.724;13.346;2023-04-27T08:25:26;96845.47;;;17.97;64.29
51123;BME280;37162;41.724;13.346;2023-04-27T08:27:52;96845.25;;;17.98;64.26
51123;BME280;37162;41.724;13.346;2023-04-27T08:30:17;96846.63;;;18.01;64.24
51123;BME280;37162;41.724;13.346;2023-04-27T08:32:43;96835.66;;;18.02;64.21
51123;BME280;37162;41.724;13.346;2023-04-27T08:35:08;96843.50;;;18.04;64.29
51123;BME280;37162;41.724;13.346;2023-04-27T08:37:34;96840.56;;;18.05;64.55
51123;BME280;37162;41.724;13.346;2023-04-27T08:39:59;96843.03;;;18.07;64.26
51123;BME280;37162;41.724;13.346;2023-04-27T08:42:25;96845.47;;;18.08;64.14
51123;BME280;37162;41.724;13.346;2023-04-27T08:44:50;96842.53;;;18.10;64.16
51123;BME280;37162;41.724;13.346;2023-04-27T08:47:16;96842.31;;;18.11;64.22
51123;BME280;37162;41.724;13.346;2023-04-27T08:49:41;96829.56;;;18.07;64.28
51123;BME280;37162;41.724;13.346;2023-04-27T08:52:12;96844.28;;;18.16;64.44
51123;BME280;37162;41.724;13.346;2023-04-27T08:54:38;96843.69;;;18.14;64.44
51123;BME280;37162;41.724;13.346;2023-04-27T08:57:10;96847.28;;;18.20;64.43
51123;BME280;37162;41.724;13.346;2023-04-27T08:59:36;96847.28;;;18.20;64.31
51123;BME280;37162;41.724;13.346;2023-04-27T09:02:02;96853.25;;;18.22;64.60
51123;BME280;37162;41.724;13.346;2023-04-27T09:04:38;96838.75;;;18.23;64.37
51123;BME280;37162;41.724;13.346;2023-04-27T09:07:14;96846.34;;;18.26;64.29
51123;BME280;37162;41.724;13.346;2023-04-27T09:09:40;96848.78;;;18.27;64.22
51123;BME280;37162;41.724;13.346;2023-04-27T09:12:20;96847.47;;;18.30;64.21
51123;BME280;37162;41.724;13.346;2023-04-27T09:14:59;96846.22;;;18.32;64.18
51123;BME280;37162;41.724;13.346;2023-04-27T09:17:29;96845.97;;;18.34;64.15
51123;BME280;37162;41.724;13.346;2023-04-27T09:20:09;96853.56;;;18.37;64.13
51123;BME280;37162;41.724;13.346;2023-04-27T09:22:43;96854.13;;;18.39;64.02
51123;BME280;37162;41.724;13.346;2023-04-27T09:25:09;96849.34;;;18.41;64.00
51123;BME280;37162;41.724;13.346;2023-04-27T09:27:37;96852.84;;;18.42;63.97
51123;BME280;37162;41.724;13.346;2023-04-27T09:30:12;96837.16;;;18.38;63.79
51123;BME280;37162;41.724;13.346;2023-04-27T09:32:37;96837.16;;;18.38;63.70
51123;BME280;37162;41.724;13.346;2023-04-27T09:35:17;96840.88;;;18.49;63.85
51123;BME280;37162;41.724;13.346;2023-04-27T09:37:49;96844.38;;;18.50;63.85
51123;BME280;37162;41.724;13.346;2023-04-27T09:40:18;96836.88;;;18.52;63.99
51123;BME280;37162;41.724;13.346;2023-04-27T09:42:43;96845.78;;;18.52;63.98
51123;BME280;37162;41.724;13.346;2023-04-27T09:45:10;96835.25;;;18.51;63.90
51123;BME280;37162;41.724;13.346;2023-04-27T09:47:36;96843.66;;;18.54;63.69
51123;BME280;37162;41.724;13.346;2023-04-27T09:50:04;96846.09;;;18.56;63.87
51123;BME280;37162;41.724;13.346;2023-04-27T09:52:31;96845.03;;;18.57;63.81
51123;BME280;37162;41.724;13.346;2023-04-27T09:54:57;96835.91;;;18.58;64.00
51123;BME280;37162;41.724;13.346;2023-04-27T09:57:36;96847.25;;;18.60;64.16
51123;BME280;37162;41.724;13.346;2023-04-27T10:03:45;96837.06;;;18.62;63.89
51123;BME280;37162;41.724;13.346;2023-04-27T10:08:40;96840.34;;;18.64;64.04
51123;BME280;37162;41.724;13.346;2023-04-27T10:11:13;96838.47;;;18.64;63.60
51123;BME280;37162;41.724;13.346;2023-04-27T10:13:52;96835.53;;;18.66;63.90
51123;BME280;37162;41.724;13.346;2023-04-27T10:16:19;96837.16;;;18.67;63.78
51123;BME280;37162;41.724;13.346;2023-04-27T10:18:54;96835.09;;;18.69;63.67
51123;BME280;37162;41.724;13.346;2023-04-27T10:21:20;96827.56;;;18.71;63.37
51123;BME280;37162;41.724;13.346;2023-04-27T10:23:47;96831.06;;;18.72;63.37
51123;BME280;37162;41.724;13.346;2023-04-27T10:26:25;96817.28;;;18.68;63.28
51123;BME280;37162;41.724;13.346;2023-04-27T10:29:04;96822.53;;;18.75;63.28
51123;BME280;37162;41.724;13.346;2023-04-27T10:31:31;96819.59;;;18.76;63.19
51123;BME280;37162;41.724;13.346;2023-04-27T10:34:07;96822.06;;;18.78;63.17
51123;BME280;37162;41.724;13.346;2023-04-27T10:36:37;96816.41;;;18.79;63.20
51123;BME280;37162;41.724;13.346;2023-04-27T10:39:22;96818.03;;;18.80;63.46
51123;BME280;37162;41.724;13.346;2023-04-27T10:41:58;96819.66;;;18.81;63.45
51123;BME280;37162;41.724;13.346;2023-04-27T10:44:29;96822.38;;;18.81;63.51
51123;BME280;37162;41.724;13.346;2023-04-27T10:46:59;96822.13;;;18.83;63.37
51123;BME280;37162;41.724;13.346;2023-04-27T10:49:28;96813.72;;;18.79;63.49
51123;BME280;37162;41.724;13.346;2023-04-27T10:51:57;96814.88;;;18.83;63.41
51123;BME280;37162;41.724;13.346;2023-04-27T10:54:29;96811.13;;;18.84;63.38
51123;BME280;37162;41.724;13.346;2023-04-27T10:57:05;96808.44;;;18.84;63.40
51123;BME280;37162;41.724;13.346;2023-04-27T10:59:31;96813.81;;;18.84;63.51
51123;BME280;37162;41.724;13.346;2023-04-27T11:01:56;96820.00;;;18.85;63.38
51123;BME280;37162;41.724;13.346;2023-04-27T11:04:22;96808.97;;;18.86;63.38
51123;BME280;37162;41.724;13.346;2023-04-27T11:06:47;96804.66;;;18.85;63.39
51123;BME280;37162;41.724;13.346;2023-04-27T11:09:14;96803.38;;;18.88;63.09
51123;BME280;37162;41.724;13.346;2023-04-27T11:11:49;96807.94;;;18.87;63.10
51123;BME280;37162;41.724;13.346;2023-04-27T11:14:19;96798.22;;;18.86;62.99
51123;BME280;37162;41.724;13.346;2023-04-27T11:16:46;96800.44;;;18.89;63.02
51123;BME280;37162;41.724;13.346;2023-04-27T11:19:12;96802.06;;;18.90;63.01
51123;BME280;37162;41.724;13.346;2023-04-27T11:21:37;96801.25;;;18.90;62.84
51123;BME280;37162;41.724;13.346;2023-04-27T11:24:07;96806.63;;;18.90;62.69
51123;BME280;37162;41.724;13.346;2023-04-27T11:26:33;96805.00;;;18.89;62.71
51123;BME280;37162;41.724;13.346;2023-04-27T11:29:00;96805.00;;;18.89;62.67
51123;BME280;37162;41.724;13.346;2023-04-27T11:31:26;96808.50;;;18.89;62.76
51123;BME280;37162;41.724;13.346;2023-04-27T11:33:52;96785.00;;;18.85;63.02
51123;BME280;37162;41.724;13.346;2023-04-27T11:36:19;96790.97;;;18.87;63.04
51123;BME280;37162;41.724;13.346;2023-04-27T11:38:45;96807.94;;;18.87;63.05
51123;BME280;37162;41.724;13.346;2023-04-27T11:41:11;96808.16;;;18.86;63.20
51123;BME280;37162;41.724;13.346;2023-04-27T11:43:40;96810.88;;;18.86;63.13
51123;BME280;37162;41.724;13.346;2023-04-27T11:46:07;96810.06;;;18.85;63.18
51123;BME280;37162;41.724;13.346;2023-04-27T11:48:38;96801.41;;;18.83;63.12
51123;BME280;37162;41.724;13.346;2023-04-27T11:51:05;96802.47;;;18.82;63.24
51123;BME280;37162;41.724;13.346;2023-04-27T11:53:32;96801.63;;;18.82;63.14
51123;BME280;37162;41.724;13.346;2023-04-27T11:56:00;96788.94;;;18.77;63.36
51123;BME280;37162;41.724;13.346;2023-04-27T11:58:27;96794.41;;;18.82;63.34
51123;BME280;37162;41.724;13.346;2023-04-27T12:00:56;96790.66;;;18.83;63.27
51123;BME280;37162;41.724;13.346;2023-04-27T12:03:22;96797.09;;;18.82;63.22
51123;BME280;37162;41.724;13.346;2023-04-27T12:05:48;96791.72;;;18.82;63.26
51123;BME280;37162;41.724;13.346;2023-04-27T12:08:15;96791.03;;;18.75;63.27
51123;BME280;37162;41.724;13.346;2023-04-27T12:10:41;96805.66;;;18.79;63.27
51123;BME280;37162;41.724;13.346;2023-04-27T12:13:06;96791.63;;;18.77;63.24
51123;BME280;37162;41.724;13.346;2023-04-27T12:15:32;96794.00;;;18.74;63.37
51123;BME280;37162;41.724;13.346;2023-04-27T12:17:58;96791.28;;;18.74;63.48
51123;BME280;37162;41.724;13.346;2023-04-27T12:20:23;96786.03;;;18.67;60.28
51123;BME280;37162;41.724;13.346;2023-04-27T12:22:52;96792.19;;;18.79;59.34
51123;BME280;37162;41.724;13.346;2023-04-27T12:25:20;96789.03;;;18.82;58.75
51123;BME280;37162;41.724;13.346;2023-04-27T12:27:46;96788.59;;;18.90;60.50
51123;BME280;37162;41.724;13.346;2023-04-27T12:30:12;96781.03;;;18.87;61.47
51123;BME280;37162;41.724;13.346;2023-04-27T12:32:39;96743.69;;;18.62;61.64
51123;BME280;37162;41.724;13.346;2023-04-27T12:35:05;96759.34;;;18.77;62.06
51123;BME280;37162;41.724;13.346;2023-04-27T12:37:31;96779.06;;;18.83;62.30
51123;BME280;37162;41.724;13.346;2023-04-27T12:39:57;96793.56;;;18.82;62.61
51123;BME280;37162;41.724;13.346;2023-04-27T12:42:22;96791.38;;;18.79;62.84
51123;BME280;37162;41.724;13.346;2023-04-27T12:44:49;96779.13;;;18.71;62.81
51123;BME280;37162;41.724;13.346;2023-04-27T12:47:22;96775.72;;;18.76;63.03
51123;BME280;37162;41.724;13.346;2023-04-27T12:49:47;96783.22;;;18.74;63.02
51123;BME280;37162;41.724;13.346;2023-04-27T12:52:13;96760.28;;;18.71;63.22
51123;BME280;37162;41.724;13.346;2023-04-27T12:54:38;96766.75;;;18.70;63.21